Brighton Township, Michigan
Current Conditions -  °F | °C
As of 8:34 PM on Thursday 27 Nov 2014 (Local Time) from KOZW Reporting Station
Overcast Overcast  
Wind Chill: 14°   Ceiling: 3500
Heat Index: 24°   Visibility: 10mi
Dew Point: 15°   Wind: 10mph
Humidity: 69%   Direction: 300°WNW
Pressure: 30.27"   Gusts: NA
Location:  42.5333°N, 83.7735°W
Report Text: KOZW 280134Z AUTO 30009KT 10SM SCT027 BKN035 OVC045 M04/M09 A3027 RMK AO2 T10421092
Loading
Personal Weather Stations






























Interactive Weather Map New forecast layout! Learn more

10-Day Weather Forecast

Advertisements
Track Severe Weather on mobile